Time;durP1;ratioP1;P1;durP2;ratioP2;P2;SDS_P1;SDS_P2;PMS_P1;PMS_P2;Temp;Humidity;BMP_temperature;BMP_pressure;BME280_temperature;BME280_humidity;BME280_pressure;Samples;Min_cycle;Max_cycle;Signal;HPM_P1;HPM_P2
2023/01/23 00:02:27;;;;;;;34.93;21.30;;;;;;;-2.57;100.00;97376.28;5030820;28;105485;-76
2023/01/23 00:04:54;;;;;;;36.67;21.63;;;;;;;-2.65;100.00;97373.59;5030175;28;105561;-76
2023/01/23 00:07:21;;;;;;;31.07;21.60;;;;;;;-2.64;100.00;97370.03;5030323;28;102049;-76
2023/01/23 00:09:48;;;;;;;33.27;21.23;;;;;;;-2.69;100.00;97374.03;5030328;28;105295;-76
2023/01/23 00:12:16;;;;;;;31.73;21.33;;;;;;;-2.59;100.00;97375.63;5029356;28;105188;-76
2023/01/23 00:14:46;;;;;;;28.30;20.27;;;;;;;-2.60;100.00;97376.59;5030534;28;102037;-76
2023/01/23 00:17:15;;;;;;;34.03;21.70;;;;;;;-2.73;100.00;97372.69;5033570;28;105199;-76
2023/01/23 00:19:42;;;;;;;31.30;20.53;;;;;;;-2.84;100.00;97368.47;5029716;28;101891;-76
2023/01/23 00:22:09;;;;;;;30.97;21.00;;;;;;;-3.02;100.00;97374.56;5029685;28;105220;-77
2023/01/23 00:24:36;;;;;;;28.33;19.33;;;;;;;-2.99;100.00;97369.94;5029613;28;105434;-77
2023/01/23 00:27:03;;;;;;;29.17;19.70;;;;;;;-2.97;100.00;97383.59;5029967;28;101920;-76
2023/01/23 00:29:29;;;;;;;32.70;20.47;;;;;;;-3.10;100.00;97377.09;5030086;28;104885;-77
2023/01/23 00:31:59;;;;;;;29.93;19.57;;;;;;;-3.25;100.00;97375.88;5029264;28;105733;-77
2023/01/23 00:34:26;;;;;;;28.03;18.33;;;;;;;-3.18;100.00;97376.97;5029863;27;101912;-77
2023/01/23 00:36:54;;;;;;;27.83;18.20;;;;;;;-3.03;100.00;97378.97;5031520;28;102570;-76
2023/01/23 00:39:25;;;;;;;27.43;18.67;;;;;;;-3.22;100.00;97381.63;5032727;27;101998;-77
2023/01/23 00:41:52;;;;;;;25.83;17.47;;;;;;;-3.18;100.00;97383.00;5030058;28;104857;-76
2023/01/23 00:44:20;;;;;;;27.83;18.13;;;;;;;-3.04;100.00;97381.72;5029140;28;105641;-76
2023/01/23 00:46:47;;;;;;;25.60;17.53;;;;;;;-3.12;100.00;97389.41;5030431;28;102647;-76
2023/01/23 00:49:16;;;;;;;25.67;17.80;;;;;;;-3.14;100.00;97386.97;5029754;28;104924;-77
2023/01/23 00:51:46;;;;;;;26.87;17.63;;;;;;;-3.08;100.00;97398.56;5029121;28;105441;-76
2023/01/23 00:54:13;;;;;;;27.57;17.30;;;;;;;-2.88;100.00;97400.97;5029239;27;102017;-76
2023/01/23 00:56:41;;;;;;;26.67;17.10;;;;;;;-2.92;100.00;97401.38;5029793;28;103765;-76
2023/01/23 00:59:08;;;;;;;24.77;16.77;;;;;;;-2.84;100.00;97404.91;5032328;28;105400;-76
2023/01/23 01:01:35;;;;;;;29.10;17.57;;;;;;;-2.88;100.00;97400.16;5030955;27;102359;-77
2023/01/23 01:04:02;;;;;;;27.90;17.63;;;;;;;-3.06;100.00;97387.06;5029124;28;105499;-77
2023/01/23 01:06:31;;;;;;;25.17;17.43;;;;;;;-3.13;100.00;97399.00;5029571;28;101823;-77
2023/01/23 01:09:00;;;;;;;29.17;17.67;;;;;;;-3.07;100.00;97397.63;5029614;28;103084;-76
2023/01/23 01:11:29;;;;;;;32.50;18.83;;;;;;;-3.22;100.00;97405.03;5030573;27;102722;-76
2023/01/23 01:14:00;;;;;;;30.40;18.67;;;;;;;-3.24;100.00;97401.75;5029478;28;102020;-77
2023/01/23 01:16:27;;;;;;;29.20;18.70;;;;;;;-3.18;100.00;97401.19;5027408;28;105249;-77
2023/01/23 01:18:56;;;;;;;25.97;17.60;;;;;;;-3.19;100.00;97399.56;5030065;27;102637;-77
2023/01/23 01:21:23;;;;;;;28.37;18.30;;;;;;;-3.21;100.00;97401.50;5032741;28;101905;-77
2023/01/23 01:23:51;;;;;;;28.67;17.07;;;;;;;-3.09;100.00;97395.16;5028946;28;105535;-77
2023/01/23 01:26:18;;;;;;;27.87;18.27;;;;;;;-3.11;100.00;97407.47;5028824;28;101775;-77
2023/01/23 01:28:48;;;;;;;30.80;19.03;;;;;;;-3.22;100.00;97399.03;5029031;28;104835;-77
2023/01/23 01:31:16;;;;;;;31.23;19.13;;;;;;;-3.09;100.00;97407.34;5028460;28;105051;-77
2023/01/23 01:33:44;;;;;;;30.13;18.50;;;;;;;-3.18;100.00;97411.59;5029140;28;101986;-77
2023/01/23 01:36:12;;;;;;;28.17;16.87;;;;;;;-3.27;100.00;97402.03;5028748;28;105175;-77
2023/01/23 01:38:40;;;;;;;29.80;17.63;;;;;;;-3.25;100.00;97396.69;5028359;28;105000;-77
2023/01/23 01:41:08;;;;;;;27.67;16.80;;;;;;;-3.31;100.00;97394.66;5028982;28;101944;-77
2023/01/23 01:43:36;;;;;;;32.40;18.43;;;;;;;-3.30;100.00;97401.50;5031617;28;105094;-77
2023/01/23 01:46:13;;;;;;;30.20;18.77;;;;;;;-3.23;100.00;97406.00;5029339;28;101882;-77
2023/01/23 01:48:48;;;;;;;30.33;18.40;;;;;;;-3.17;100.00;97397.63;5028987;28;104737;-77
2023/01/23 01:51:24;;;;;;;27.67;18.60;;;;;;;-3.28;100.00;97395.19;5027356;28;105444;-77
2023/01/23 01:54:00;;;;;;;29.03;17.60;;;;;;;-3.27;100.00;97402.03;5028294;28;102153;-77
2023/01/23 01:56:33;;;;;;;27.47;17.93;;;;;;;-3.22;100.00;97399.84;5028414;28;105282;-77
2023/01/23 01:59:03;;;;;;;26.57;17.20;;;;;;;-3.17;100.00;97394.22;5027803;27;105606;-77
2023/01/23 02:01:30;;;;;;;25.80;16.63;;;;;;;-3.30;100.00;97396.28;5028288;28;101914;-77
2023/01/23 02:03:58;;;;;;;24.40;16.60;;;;;;;-3.45;100.00;97395.91;5028242;28;104806;-77
2023/01/23 02:06:28;;;;;;;25.43;16.40;;;;;;;-3.70;100.00;97388.72;5030720;28;105066;-77
2023/01/23 02:09:03;;;;;;;23.93;15.77;;;;;;;-3.80;100.00;97387.91;5029344;27;104613;-77
2023/01/23 02:11:32;;;;;;;24.57;16.53;;;;;;;-3.83;100.00;97389.97;5027743;28;105057;-77
2023/01/23 02:14:01;;;;;;;23.53;15.67;;;;;;;-3.94;100.00;97380.53;5028455;28;102179;-77
2023/01/23 02:16:31;;;;;;;23.03;15.17;;;;;;;-3.99;100.00;97385.31;5027965;28;105259;-77
2023/01/23 02:19:06;;;;;;;24.97;15.77;;;;;;;-3.90;100.00;97384.50;5027283;28;105391;-77
2023/01/23 02:21:34;;;;;;;23.03;15.07;;;;;;;-4.00;100.00;97388.03;5028347;28;101817;-77
2023/01/23 02:24:14;;;;;;;26.10;16.03;;;;;;;-4.18;100.00;97387.06;5027875;28;104916;-77
2023/01/23 02:26:45;;;;;;;28.27;15.83;;;;;;;-4.20;100.00;97389.78;5027574;28;105201;-77
2023/01/23 02:29:14;;;;;;;26.77;16.47;;;;;;;-4.00;100.00;97390.63;5030954;28;102046;-78
2023/01/23 02:31:51;;;;;;;24.93;15.93;;;;;;;-3.92;100.00;97391.63;5027389;28;105214;-77
2023/01/23 02:34:26;;;;;;;25.47;15.83;;;;;;;-4.13;100.00;97385.72;5028049;28;101911;-77
2023/01/23 02:37:00;;;;;;;28.83;16.83;;;;;;;-4.08;100.00;97383.53;5027363;28;102542;-77
2023/01/23 02:39:27;;;;;;;26.17;17.20;;;;;;;-4.06;100.00;97385.97;5027436;28;105625;-77
2023/01/23 02:41:59;;;;;;;25.63;16.30;;;;;;;-4.05;100.00;97388.44;5027577;28;102044;-77
2023/01/23 02:44:40;;;;;;;27.57;16.47;;;;;;;-3.97;100.00;97383.41;5027431;28;103438;-77
2023/01/23 02:47:11;;;;;;;27.03;16.20;;;;;;;-3.90;100.00;97384.50;5027004;28;105087;-77
2023/01/23 02:49:38;;;;;;;26.77;16.73;;;;;;;-3.83;100.00;97380.38;5030924;28;101989;-77
2023/01/23 02:52:08;;;;;;;24.83;15.30;;;;;;;-3.74;100.00;97382.16;5026518;28;105886;-77
2023/01/23 02:54:36;;;;;;;25.03;16.20;;;;;;;-3.85;100.00;97389.25;5028048;28;101763;-77
2023/01/23 02:57:04;;;;;;;26.47;15.83;;;;;;;-3.76;100.00;97384.06;5027424;28;105376;-77
2023/01/23 03:02:16;;;;;;;27.50;15.80;;;;;;;-3.80;100.00;97398.31;5027773;28;102120;-77
2023/01/23 03:04:43;;;;;;;28.23;17.57;;;;;;;-3.78;100.00;97385.19;5027407;28;104776;-77
2023/01/23 03:07:09;;;;;;;29.23;16.83;;;;;;;-3.80;100.00;97382.72;5026777;28;104751;-77
2023/01/23 03:09:37;;;;;;;31.23;17.70;;;;;;;-3.63;100.00;97392.41;5027269;28;101927;-77
2023/01/23 03:12:06;;;;;;;28.50;17.30;;;;;;;-3.87;100.00;97389.38;5030195;28;105282;-77
2023/01/23 03:14:33;;;;;;;30.33;17.87;;;;;;;-3.89;100.00;97391.31;5027070;28;101815;-77
2023/01/23 03:17:00;;;;;;;28.10;17.37;;;;;;;-3.90;100.00;97394.88;5027498;27;105349;-77
2023/01/23 03:19:34;;;;;;;30.77;19.07;;;;;;;-3.69;100.00;97385.16;5029570;28;105387;-77
2023/01/23 03:22:01;;;;;;;27.47;17.27;;;;;;;-3.73;100.00;97390.75;5030778;28;102253;-78
2023/01/23 03:24:29;;;;;;;28.10;17.33;;;;;;;-3.69;100.00;97392.97;5031056;28;104792;-77
2023/01/23 03:26:56;;;;;;;29.57;17.40;;;;;;;-3.83;100.00;97385.56;5030218;28;105625;-77
2023/01/23 03:32:15;;;;;;;26.30;16.50;;;;;;;-3.99;100.00;97387.91;5030565;28;105120;-77
2023/01/23 03:34:44;;;;;;;30.50;18.07;;;;;;;-4.17;100.00;97384.34;5033624;28;105802;-77
2023/01/23 03:37:13;;;;;;;28.40;17.67;;;;;;;-4.17;100.00;97384.34;5030958;28;105163;-77
2023/01/23 03:42:29;;;;;;;29.03;17.13;;;;;;;-4.36;100.00;97386.91;5030228;28;102413;-77
2023/01/23 03:44:59;;;;;;;29.40;17.17;;;;;;;-4.26;100.00;97385.16;5030222;28;104788;-77
2023/01/23 03:47:30;;;;;;;25.00;15.60;;;;;;;-4.16;100.00;97379.97;5029756;27;104872;-77
2023/01/23 03:49:57;;;;;;;26.60;16.00;;;;;;;-4.36;100.00;97392.09;5030302;28;101904;-77
2023/01/23 03:52:24;;;;;;;29.93;16.77;;;;;;;-4.34;100.00;97398.00;5029592;28;105279;-77
2023/01/23 03:54:51;;;;;;;28.50;16.67;;;;;;;-4.36;100.00;97399.88;5029683;28;105267;-77
2023/01/23 03:57:19;;;;;;;30.27;17.47;;;;;;;-4.26;100.00;97402.53;5035243;28;101789;-77
2023/01/23 04:00:04;;;;;;;28.67;16.57;;;;;;;-4.35;100.00;97406.75;5029765;28;105089;-77
2023/01/23 04:02:40;;;;;;;28.53;16.50;;;;;;;-4.21;100.00;97413.31;5028478;28;101723;-77
2023/01/23 04:05:10;;;;;;;30.63;18.30;;;;;;;-4.06;100.00;97399.78;5029722;28;105342;-77
2023/01/23 04:07:38;;;;;;;30.13;17.37;;;;;;;-3.87;100.00;97406.78;5029373;28;105452;-76
2023/01/23 04:10:05;;;;;;;27.97;17.23;;;;;;;-3.79;100.00;97399.94;5030119;28;101895;-77
2023/01/23 04:12:32;;;;;;;26.17;16.70;;;;;;;-3.74;100.00;97396.91;5029668;28;105492;-77
2023/01/23 04:14:59;;;;;;;28.43;17.03;;;;;;;-3.70;100.00;97401.72;5029094;28;105071;-77
2023/01/23 04:17:28;;;;;;;27.03;16.90;;;;;;;-3.76;100.00;97409.22;5029704;28;102060;-77
2023/01/23 04:19:56;;;;;;;27.80;17.40;;;;;;;-3.74;100.00;97412.50;5031850;28;105090;-77
2023/01/23 04:22:23;;;;;;;27.67;17.00;;;;;;;-3.86;100.00;97409.25;5029455;28;101955;-77
2023/01/23 04:24:51;;;;;;;27.50;17.00;;;;;;;-3.66;100.00;97404.84;5029612;28;105029;-76
2023/01/23 04:27:19;;;;;;;26.87;18.20;;;;;;;-3.63;100.00;97400.19;5028938;28;104767;-77
2023/01/23 04:29:47;;;;;;;29.23;17.77;;;;;;;-3.65;100.00;97394.28;5028584;27;101858;-77
2023/01/23 04:32:14;;;;;;;31.80;17.07;;;;;;;-3.54;100.00;97398.53;5029450;28;105012;-77
2023/01/23 04:34:46;;;;;;;26.10;16.73;;;;;;;-3.58;100.00;97405.81;5029606;28;104092;-77
2023/01/23 04:37:14;;;;;;;28.37;17.17;;;;;;;-3.49;100.00;97397.16;5029704;28;102295;-77
2023/01/23 04:39:41;;;;;;;29.47;18.17;;;;;;;-3.45;100.00;97405.53;5029340;28;105057;-77
2023/01/23 04:42:09;;;;;;;24.83;16.70;;;;;;;-3.42;100.00;97406.06;5032225;28;105019;-77
2023/01/23 04:44:58;;;;;;;30.00;17.93;;;;;;;-3.58;100.00;97408.41;5009857;27;102777;-77
2023/01/23 04:47:31;;;;;;;26.00;17.07;;;;;;;-3.50;100.00;97400.72;5027072;27;102457;-77
2023/01/23 04:50:00;;;;;;;26.80;16.97;;;;;;;-3.46;100.00;97407.28;5029469;28;102079;-77
2023/01/23 04:52:31;;;;;;;26.33;17.13;;;;;;;-3.50;100.00;97418.91;5029057;28;105033;-77
2023/01/23 04:54:58;;;;;;;25.03;16.03;;;;;;;-3.40;100.00;97421.50;5030107;27;102690;-76
2023/01/23 04:57:25;;;;;;;22.60;15.57;;;;;;;-3.24;100.00;97421.75;5028906;28;101871;-76
2023/01/23 04:59:58;;;;;;;28.60;16.63;;;;;;;-3.29;100.00;97418.75;5028802;28;105387;-76
2023/01/23 05:02:26;;;;;;;26.97;16.50;;;;;;;-3.13;100.00;97435.41;5032017;28;104741;-76
2023/01/23 05:04:53;;;;;;;26.63;17.20;;;;;;;-3.15;100.00;97432.13;5028906;28;104941;-76
2023/01/23 05:07:23;;;;;;;27.27;16.80;;;;;;;-3.20;100.00;97428.31;5028503;28;105099;-77
2023/01/23 05:10:12;;;;;;;25.67;16.07;;;;;;;-3.29;100.00;97434.38;5029107;28;102393;-76
2023/01/23 05:12:39;;;;;;;30.03;17.50;;;;;;;-3.30;100.00;97432.69;5028834;28;105046;-76
2023/01/23 05:15:07;;;;;;;29.87;18.00;;;;;;;-3.40;100.00;97427.53;5029017;28;105613;-76
2023/01/23 05:17:40;;;;;;;27.17;17.33;;;;;;;-3.53;100.00;97424.41;5029466;28;102014;-76
2023/01/23 05:20:08;;;;;;;29.93;18.60;;;;;;;-3.49;100.00;97417.94;5029177;28;105494;-76
2023/01/23 05:22:50;;;;;;;29.07;18.77;;;;;;;-3.37;100.00;97422.06;5028485;28;103074;-76
2023/01/23 05:25:19;;;;;;;28.83;18.20;;;;;;;-3.28;100.00;97416.00;5032940;28;101868;-76
2023/01/23 05:27:46;;;;;;;29.23;17.83;;;;;;;-3.32;100.00;97417.25;5028642;28;105014;-76
2023/01/23 05:30:14;;;;;;;28.57;18.27;;;;;;;-3.24;100.00;97411.34;5028758;28;101948;-76
2023/01/23 05:32:41;;;;;;;29.47;18.83;;;;;;;-3.20;100.00;97416.13;5028940;28;105142;-76
2023/01/23 05:35:11;;;;;;;32.10;19.57;;;;;;;-3.19;100.00;97420.38;5028461;28;105631;-76
2023/01/23 05:37:43;;;;;;;27.37;17.67;;;;;;;-3.11;100.00;97417.88;5028631;28;102031;-76
2023/01/23 05:40:13;;;;;;;25.53;16.87;;;;;;;-3.16;100.00;97422.66;5028332;28;104949;-76
2023/01/23 05:43:03;;;;;;;29.83;17.93;;;;;;;-3.16;100.00;97433.06;5022518;28;103957;-76
2023/01/23 05:45:49;;;;;;;29.30;19.03;;;;;;;-3.00;100.00;97435.91;5026481;28;102065;-76
2023/01/23 05:48:25;;;;;;;28.17;18.23;;;;;;;-2.91;100.00;97442.03;5031408;28;104886;-76
2023/01/23 05:50:52;;;;;;;25.67;16.90;;;;;;;-2.89;100.00;97440.16;5028389;28;102003;-76
2023/01/23 05:53:22;;;;;;;27.27;18.00;;;;;;;-3.04;100.00;97438.94;5027902;28;105249;-76
2023/01/23 05:55:49;;;;;;;27.57;17.97;;;;;;;-3.04;100.00;97434.56;5027576;28;105012;-76
2023/01/23 05:58:16;;;;;;;29.10;18.50;;;;;;;-3.09;100.00;97439.38;5027868;28;102059;-76
2023/01/23 06:01:09;;;;;;;28.97;18.63;;;;;;;-2.91;100.00;97434.25;5016982;27;102806;-71
2023/01/23 06:03:55;;;;;;;26.53;17.57;;;;;;;-3.15;100.00;97426.94;5025983;28;102690;-76
2023/01/23 06:06:48;;;;;;;30.10;18.13;;;;;;;-2.88;100.00;97429.59;5016771;27;101899;-76
2023/01/23 06:09:16;;;;;;;31.53;18.97;;;;;;;-2.88;100.00;97432.19;5027802;28;105407;-76
2023/01/23 06:11:43;;;;;;;28.53;19.00;;;;;;;-2.88;100.00;97433.97;5030593;28;105429;-77
2023/01/23 06:14:10;;;;;;;30.73;18.77;;;;;;;-2.88;100.00;97445.22;5027718;28;104792;-76
2023/01/23 06:16:37;;;;;;;29.97;19.37;;;;;;;-2.81;100.00;97442.84;5027481;28;105246;-76
2023/01/23 06:19:05;;;;;;;26.43;17.80;;;;;;;-2.84;100.00;97435.34;5027073;28;102417;-76
2023/01/23 06:21:35;;;;;;;30.83;18.63;;;;;;;-2.84;100.00;97437.94;5027841;28;104668;-76
2023/01/23 06:24:04;;;;;;;29.37;18.00;;;;;;;-2.90;100.00;97436.72;5027099;28;105599;-76
2023/01/23 06:26:32;;;;;;;37.80;20.60;;;;;;;-2.97;100.00;97446.06;5027946;28;101845;-77
2023/01/23 06:28:59;;;;;;;30.60;19.77;;;;;;;-2.90;100.00;97439.31;5028758;27;102366;-77
2023/01/23 06:31:29;;;;;;;29.90;18.97;;;;;;;-2.85;100.00;97444.13;5027564;28;105078;-76
2023/01/23 06:33:59;;;;;;;28.70;18.23;;;;;;;-2.87;100.00;97428.63;5031655;28;101841;-76
2023/01/23 06:36:31;;;;;;;31.47;19.17;;;;;;;-2.75;100.00;97430.09;5027680;28;105594;-76
2023/01/23 06:38:59;;;;;;;29.60;18.83;;;;;;;-2.71;100.00;97444.47;5028150;28;101871;-76
2023/01/23 06:41:34;;;;;;;29.10;18.43;;;;;;;-2.71;100.00;97452.28;5027702;28;104209;-77
2023/01/23 06:44:04;;;;;;;28.13;18.37;;;;;;;-2.60;100.00;97464.28;5027050;28;105434;-76
2023/01/23 06:46:31;;;;;;;28.80;18.60;;;;;;;-2.59;100.00;97477.16;5027753;28;102302;-77
2023/01/23 06:48:58;;;;;;;28.80;19.00;;;;;;;-2.56;100.00;97478.66;5027884;28;104798;-77
2023/01/23 06:51:24;;;;;;;38.40;24.27;;;;;;;-2.64;100.00;97481.13;5027103;28;105915;-76
2023/01/23 06:53:52;;;;;;;45.47;27.10;;;;;;;-2.42;100.00;97494.63;5030189;28;102082;-76
2023/01/23 06:56:19;;;;;;;54.40;31.97;;;;;;;-2.34;100.00;97491.31;5033692;28;104943;-76
2023/01/23 06:58:49;;;;;;;41.93;26.03;;;;;;;-2.39;100.00;97483.94;5030905;28;101941;-76
2023/01/23 07:01:29;;;;;;;37.13;22.97;;;;;;;-2.48;100.00;97473.53;5031110;28;104760;-76
2023/01/23 07:04:20;;;;;;;31.57;19.40;;;;;;;-2.62;100.00;97461.81;5030231;28;105229;-76
2023/01/23 07:06:49;;;;;;;30.30;18.70;;;;;;;-2.59;100.00;97464.13;5030915;28;102013;-76
2023/01/23 07:09:18;;;;;;;29.47;18.80;;;;;;;-2.63;100.00;97470.59;5030664;28;104822;-76
2023/01/23 07:11:52;;;;;;;26.57;17.47;;;;;;;-2.55;100.00;97473.31;5030182;28;105128;-76
2023/01/23 07:14:21;;;;;;;29.53;18.50;;;;;;;-2.47;100.00;97470.81;5030666;28;101691;-76
2023/01/23 07:16:51;;;;;;;31.70;20.03;;;;;;;-2.29;100.00;97473.47;5033654;28;104958;-76
2023/01/23 07:19:18;;;;;;;32.13;19.33;;;;;;;-2.31;100.00;97475.38;5029604;28;101924;-76
2023/01/23 07:21:47;;;;;;;30.60;19.77;;;;;;;-2.31;100.00;97476.22;5030728;28;105253;-77
2023/01/23 07:24:14;;;;;;;29.47;19.00;;;;;;;-2.06;100.00;97487.72;5030142;28;105299;-77
2023/01/23 07:26:41;;;;;;;48.53;26.70;;;;;;;-2.03;100.00;97483.03;5030351;28;101929;-77
2023/01/23 07:29:08;;;;;;;40.87;24.27;;;;;;;-2.13;100.00;97478.88;5030161;28;105203;-76
2023/01/23 07:31:37;;;;;;;36.17;21.87;;;;;;;-2.14;100.00;97474.63;5029855;28;105016;-77
2023/01/23 07:34:05;;;;;;;30.23;20.07;;;;;;;-2.04;100.00;97484.03;5030101;28;101955;-77
2023/01/23 07:36:31;;;;;;;31.53;18.63;;;;;;;-2.25;100.00;97486.03;5030307;28;105640;-77
2023/01/23 07:38:59;;;;;;;29.57;19.10;;;;;;;-2.37;100.00;97479.41;5033098;28;105108;-76
2023/01/23 07:41:25;;;;;;;29.83;19.23;;;;;;;-2.09;100.00;97485.44;5030170;28;104722;-76
2023/01/23 07:43:52;;;;;;;41.97;23.57;;;;;;;-1.99;100.00;97481.78;5029644;28;105390;-76
2023/01/23 07:46:19;;;;;;;45.10;24.53;;;;;;;-2.09;100.00;97486.25;5030106;28;102208;-76
2023/01/23 07:48:47;;;;;;;35.07;21.80;;;;;;;-2.08;100.00;97476.66;5029792;28;105556;-76
2023/01/23 07:51:14;;;;;;;35.80;20.23;;;;;;;-2.04;100.00;97485.78;5030936;27;102542;-77
2023/01/23 07:53:41;;;;;;;30.53;20.57;;;;;;;-2.13;100.00;97479.66;5029890;28;101930;-76
2023/01/23 07:56:08;;;;;;;31.50;20.13;;;;;;;-2.04;100.00;97468.38;5030035;28;104170;-77
2023/01/23 07:58:36;;;;;;;30.50;20.60;;;;;;;-2.10;100.00;97476.78;5030847;27;102488;-77
2023/01/23 08:01:10;;;;;;;30.37;19.37;;;;;;;-1.88;100.00;97476.38;5033143;28;101893;-77
2023/01/23 08:03:37;;;;;;;36.10;20.23;;;;;;;-1.81;100.00;97493.06;5028362;27;105777;-77
2023/01/23 08:06:06;;;;;;;32.37;19.70;;;;;;;-1.53;100.00;97488.63;5029939;28;101842;-77
2023/01/23 08:08:33;;;;;;;35.37;22.90;;;;;;;-1.52;100.00;97498.09;5029654;28;105102;-76
2023/01/23 08:11:03;;;;;;;37.70;23.60;;;;;;;-1.66;100.00;97506.41;5029263;28;105375;-77
2023/01/23 08:13:30;;;;;;;44.37;25.83;;;;;;;-1.75;100.00;97509.91;5029474;28;101771;-76
2023/01/23 08:15:58;;;;;;;34.17;22.53;;;;;;;-1.86;100.00;97497.88;5029724;28;104822;-77
2023/01/23 08:18:25;;;;;;;31.03;20.20;;;;;;;-1.87;100.00;97501.47;5030154;27;101782;-76
2023/01/23 08:20:55;;;;;;;28.80;18.43;;;;;;;-2.10;100.00;97500.25;5031097;27;101674;-77
2023/01/23 08:23:26;;;;;;;29.03;18.30;;;;;;;-1.96;100.00;97506.75;5032257;28;104831;-76
2023/01/23 08:25:53;;;;;;;30.63;20.47;;;;;;;-1.96;100.00;97501.53;5029451;28;101877;-76
2023/01/23 08:28:21;;;;;;;30.23;19.77;;;;;;;-1.85;100.00;97494.34;5029539;28;105059;-76
2023/01/23 08:30:48;;;;;;;29.37;19.60;;;;;;;-1.92;100.00;97480.22;5028687;28;105271;-77
2023/01/23 08:33:15;;;;;;;32.80;19.93;;;;;;;-1.80;100.00;97486.88;5029409;28;102364;-76
2023/01/23 08:35:49;;;;;;;31.43;20.23;;;;;;;-1.95;100.00;97490.97;5029397;28;104007;-77
2023/01/23 08:38:16;;;;;;;26.83;18.70;;;;;;;-2.00;100.00;97505.38;5028680;28;105367;-77
2023/01/23 08:40:45;;;;;;;32.33;19.90;;;;;;;-1.89;100.00;97498.19;5028023;28;101994;-77
2023/01/23 08:43:13;;;;;;;27.77;19.50;;;;;;;-2.00;100.00;97498.41;5029073;28;105293;-69
2023/01/23 08:45:40;;;;;;;28.23;19.43;;;;;;;-2.00;100.00;97493.19;5031494;28;104521;-66
2023/01/23 08:48:07;;;;;;;30.60;20.03;;;;;;;-1.89;100.00;97503.41;5028322;28;105387;-66
2023/01/23 08:50:35;;;;;;;29.30;19.30;;;;;;;-1.68;100.00;97498.75;5027992;28;105962;-66
2023/01/23 08:53:02;;;;;;;30.27;20.03;;;;;;;-1.76;100.00;97503.06;5029610;28;102556;-66
2023/01/23 08:55:31;;;;;;;31.97;20.57;;;;;;;-1.64;100.00;97497.47;5029835;28;103029;-66
2023/01/23 08:58:00;;;;;;;33.23;19.87;;;;;;;-1.57;100.00;97493.31;5029185;28;103126;-66
2023/01/23 09:00:28;;;;;;;33.90;21.17;;;;;;;-1.64;100.00;97502.69;5029398;27;102546;-66
2023/01/23 09:02:59;;;;;;;36.03;21.97;;;;;;;-1.69;100.00;97510.13;5028440;28;105668;-66
2023/01/23 09:05:27;;;;;;;33.50;21.03;;;;;;;-1.97;100.00;97511.13;5027654;28;105897;-66
2023/01/23 09:07:55;;;;;;;35.40;20.73;;;;;;;-1.80;100.00;97518.16;5031531;28;101761;-66
2023/01/23 09:10:23;;;;;;;29.97;19.70;;;;;;;-1.86;100.00;97513.53;5027756;28;105860;-66
2023/01/23 09:12:51;;;;;;;28.30;19.10;;;;;;;-1.90;100.00;97521.81;5029593;27;102570;-66
2023/01/23 09:15:22;;;;;;;27.07;18.83;;;;;;;-1.82;100.00;97530.53;5027212;27;105779;-66
2023/01/23 09:17:49;;;;;;;31.33;19.67;;;;;;;-1.98;100.00;97516.50;5027037;28;105682;-66
2023/01/23 09:20:17;;;;;;;29.70;20.27;;;;;;;-2.05;100.00;97521.47;5028991;27;101809;-66
2023/01/23 09:22:45;;;;;;;29.77;19.47;;;;;;;-1.80;100.00;97527.78;5027425;28;105916;-66
2023/01/23 09:25:13;;;;;;;33.37;19.73;;;;;;;-1.84;100.00;97527.25;5025902;28;104573;-66
2023/01/23 09:27:40;;;;;;;27.07;19.17;;;;;;;-1.92;100.00;97524.53;5030209;28;102243;-66
2023/01/23 09:30:09;;;;;;;30.33;21.30;;;;;;;-1.76;100.00;97521.31;5026654;28;105608;-66
2023/01/23 09:32:38;;;;;;;25.73;18.33;;;;;;;-1.78;100.00;97525.84;5026191;28;101927;-66
2023/01/23 09:35:06;;;;;;;26.00;17.40;;;;;;;-1.98;100.00;97519.91;5026128;28;105318;-66
2023/01/23 09:37:58;;;;;;;28.00;18.43;;;;;;;-1.90;100.00;97517.41;5025791;28;105717;-66
2023/01/23 09:40:23;;;;;;;32.00;21.00;;;;;;;-2.19;100.00;97529.75;5025914;28;101973;-66
2023/01/23 09:42:55;;;;;;;29.57;18.93;;;;;;;-2.26;100.00;97530.47;5025840;28;105850;-66
2023/01/23 09:45:25;;;;;;;30.00;20.10;;;;;;;-2.34;100.00;97533.81;5025324;28;106004;-66
2023/01/23 09:48:00;;;;;;;33.67;22.07;;;;;;;-2.25;100.00;97527.72;5026415;28;101932;-66
2023/01/23 09:50:29;;;;;;;38.33;23.43;;;;;;;-2.31;100.00;97536.13;5032438;27;102803;-66
2023/01/23 09:53:01;;;;;;;36.77;22.13;;;;;;;-2.30;100.00;97531.75;5027798;28;101843;-66
2023/01/23 09:55:40;;;;;;;35.40;22.33;;;;;;;-2.34;100.00;97523.41;5027871;28;105290;-66
2023/01/23 09:58:18;;;;;;;39.37;23.17;;;;;;;-2.30;100.00;97523.94;5027427;28;105975;-66
2023/01/23 10:00:47;;;;;;;36.87;24.03;;;;;;;-2.20;100.00;97519.50;5027894;28;102342;-66
2023/01/23 10:03:17;;;;;;;40.20;24.90;;;;;;;-1.90;100.00;97511.38;5027406;28;104099;-66
2023/01/23 10:06:01;;;;;;;41.73;25.70;;;;;;;-1.95;100.00;97519.63;5027409;28;105669;-66
2023/01/23 10:08:37;;;;;;;36.67;23.10;;;;;;;-1.91;100.00;97502.72;5027885;28;101798;-66
2023/01/23 10:11:08;;;;;;;40.47;23.00;;;;;;;-2.11;100.00;97498.59;5028136;28;105451;-66
2023/01/23 10:13:47;;;;;;;34.53;22.37;;;;;;;-1.96;100.00;97499.75;5030470;28;105577;-66
2023/01/23 10:16:28;;;;;;;41.03;24.40;;;;;;;-1.61;100.00;97485.91;5027377;28;105236;-66
2023/01/23 10:19:09;;;;;;;41.80;23.17;;;;;;;-1.48;100.00;97487.19;5026742;28;105883;-66
2023/01/23 10:21:45;;;;;;;41.83;23.43;;;;;;;-1.56;100.00;97483.69;5027578;28;101804;-66
2023/01/23 10:24:34;;;;;;;43.43;22.63;;;;;;;-1.35;100.00;97485.03;5027623;28;105325;-66
2023/01/23 10:27:17;;;;;;;39.17;22.77;;;;;;;-1.24;100.00;97484.81;5026621;28;104223;-66
2023/01/23 10:29:47;;;;;;;36.87;22.23;;;;;;;-1.28;100.00;97478.25;5027317;28;101787;-66
2023/01/23 10:32:24;;;;;;;39.10;21.87;;;;;;;-1.18;100.00;97467.72;5027307;28;105778;-66
2023/01/23 10:35:00;;;;;;;35.83;22.53;;;;;;;-1.05;100.00;97468.94;5026793;28;105429;-66
2023/01/23 10:37:48;;;;;;;40.10;22.10;;;;;;;-1.00;100.00;97477.16;5032310;27;102027;-66
2023/01/23 10:41:12;;;;;;;37.53;21.60;;;;;;;-1.29;100.00;97467.94;5026914;28;106254;-66
2023/01/23 10:43:12;;;;;;;41.10;23.00;;;;;;;-1.13;100.00;97465.47;5026986;28;101907;-66
2023/01/23 10:45:40;;;;;;;37.90;22.37;;;;;;;-1.00;100.00;97460.69;5027190;28;105680;-66
2023/01/23 10:48:28;;;;;;;36.87;22.43;;;;;;;-0.80;100.00;97460.31;5026821;28;105642;-66
2023/01/23 10:50:57;;;;;;;40.43;22.43;;;;;;;-0.93;100.00;97456.47;5027141;28;102241;-66
2023/01/23 10:53:26;;;;;;;39.03;23.13;;;;;;;-1.22;100.00;97461.97;5028437;27;102942;-66
2023/01/23 10:55:57;;;;;;;40.10;23.37;;;;;;;-1.39;100.00;97451.56;5026502;28;105716;-66
2023/01/23 10:58:33;;;;;;;42.20;24.33;;;;;;;-1.49;100.00;97459.47;5027035;28;101794;-66
2023/01/23 11:01:01;;;;;;;45.37;25.80;;;;;;;-1.40;100.00;97460.34;5030097;28;104147;-66
2023/01/23 11:03:32;;;;;;;44.63;23.70;;;;;;;-1.52;100.00;97454.56;5026838;28;101854;-66
2023/01/23 11:06:06;;;;;;;53.20;25.10;;;;;;;-1.28;100.00;97441.72;5026942;28;105485;-66
2023/01/23 11:08:36;;;;;;;50.97;26.50;;;;;;;-1.07;100.00;97446.59;5028009;28;102913;-66
2023/01/23 11:11:21;;;;;;;44.57;25.40;;;;;;;-1.10;100.00;97439.88;5026952;28;101892;-66
2023/01/23 11:13:50;;;;;;;49.63;25.90;;;;;;;-1.05;100.00;97440.25;5028444;28;102365;-66
2023/01/23 11:16:20;;;;;;;51.33;27.10;;;;;;;-1.10;100.00;97447.72;5026297;28;104389;-66
2023/01/23 11:18:54;;;;;;;55.43;26.47;;;;;;;-0.98;100.00;97437.84;5026254;28;102345;-66
2023/01/23 11:21:27;;;;;;;49.77;26.00;;;;;;;-0.87;100.00;97440.19;5026825;28;105469;-66
2023/01/23 11:24:09;;;;;;;46.53;25.47;;;;;;;-0.85;100.00;97439.06;5029402;27;101913;-66
2023/01/23 11:26:38;;;;;;;51.83;26.03;;;;;;;-0.75;100.00;97433.75;5026461;28;105687;-66